Time;durP1;ratioP1;P1;durP2;ratioP2;P2;SDS_P1;SDS_P2;PMS_P1;PMS_P2;Temp;Humidity;BMP_temperature;BMP_pressure;BME280_temperature;BME280_humidity;BME280_pressure;Samples;Min_cycle;Max_cycle;Signal;HPM_P1;HPM_P2
2023/03/19 00:00:34;;;;;;;3.58;1.30;;;19.80;1.00;;;;;;5054701;28;20454;-37
2023/03/19 00:03:01;;;;;;;2.50;1.20;;;19.70;1.00;;;;;;5054296;28;20053;-37
2023/03/19 00:05:28;;;;;;;3.95;1.73;;;19.70;1.00;;;;;;5055129;28;20451;-37
2023/03/19 00:07:54;;;;;;;5.43;1.55;;;19.70;1.00;;;;;;5054937;28;20041;-37
2023/03/19 00:10:21;;;;;;;5.18;1.83;;;19.70;1.00;;;;;;5055345;28;20045;-37
2023/03/19 00:12:48;;;;;;;7.72;1.58;;;19.60;1.00;;;;;;5054166;28;20102;-37
2023/03/19 00:15:15;;;;;;;4.47;1.23;;;19.60;1.00;;;;;;5055073;28;20397;-37
2023/03/19 00:17:42;;;;;;;1.83;1.33;;;19.60;1.00;;;;;;5054804;28;20111;-37
2023/03/19 00:20:11;;;;;;;5.38;1.67;;;19.50;1.00;;;;;;5054697;28;20112;-37
2023/03/19 00:22:38;;;;;;;3.38;1.95;;;19.50;1.00;;;;;;5054436;28;20045;-38
2023/03/19 00:25:07;;;;;;;1.60;1.33;;;19.50;1.00;;;;;;5054547;28;20045;-37
2023/03/19 00:27:35;;;;;;;5.88;1.98;;;19.50;1.00;;;;;;5053240;28;20049;-37
2023/03/19 00:30:04;;;;;;;9.20;1.73;;;19.40;1.00;;;;;;5053282;28;20044;-37
2023/03/19 00:32:35;;;;;;;5.53;1.83;;;19.40;1.00;;;;;;5054265;28;20111;-37
2023/03/19 00:35:05;;;;;;;3.20;1.60;;;19.40;1.00;;;;;;5052948;28;20049;-37
2023/03/19 00:37:33;;;;;;;7.90;2.83;;;19.40;1.00;;;;;;5054386;28;20241;-37
2023/03/19 00:40:00;;;;;;;7.25;1.98;;;19.30;1.00;;;;;;5054256;28;20045;-37
2023/03/19 00:42:27;;;;;;;4.32;1.88;;;19.30;1.00;;;;;;5053867;28;20041;-37
2023/03/19 00:44:54;;;;;;;2.58;2.10;;;19.30;1.00;;;;;;5053940;28;20033;-37
2023/03/19 00:47:23;;;;;;;3.10;2.22;;;19.30;1.00;;;;;;5054261;28;20373;-38
2023/03/19 00:49:50;;;;;;;6.80;2.40;;;19.20;1.00;;;;;;5054055;28;20112;-37
2023/03/19 00:52:17;;;;;;;2.55;1.80;;;19.20;1.00;;;;;;5052487;28;20056;-37
2023/03/19 00:54:44;;;;;;;2.90;1.85;;;19.20;1.00;;;;;;5047182;28;20128;-37
2023/03/19 00:57:11;;;;;;;5.72;2.00;;;19.20;1.00;;;;;;5053863;28;20116;-37
2023/03/19 00:59:37;;;;;;;4.18;2.53;;;19.20;1.00;;;;;;5043418;28;20080;-37
2023/03/19 01:02:04;;;;;;;7.97;2.80;;;19.20;1.00;;;;;;5043046;28;20076;-37
2023/03/19 01:04:32;;;;;;;3.38;1.90;;;19.20;1.00;;;;;;5043276;28;20448;-37
2023/03/19 01:06:59;;;;;;;5.10;2.13;;;19.10;1.00;;;;;;5053856;28;20041;-37
2023/03/19 01:09:29;;;;;;;3.70;2.55;;;19.10;1.00;;;;;;5053797;28;20045;-37
2023/03/19 01:11:56;;;;;;;3.75;1.98;;;19.10;1.00;;;;;;5053802;28;20041;-37
2023/03/19 01:14:23;;;;;;;3.50;2.28;;;19.10;1.00;;;;;;5053105;28;20045;-37
2023/03/19 01:16:50;;;;;;;4.78;3.15;;;19.10;1.00;;;;;;5045290;28;20115;-38
2023/03/19 01:19:16;;;;;;;2.50;1.95;;;19.00;1.00;;;;;;5040285;28;20045;-38
2023/03/19 01:21:45;;;;;;;4.70;2.17;;;19.00;1.00;;;;;;5035706;28;20463;-37
2023/03/19 01:24:15;;;;;;;4.95;2.20;;;19.00;1.00;;;;;;5034883;28;20628;-37
2023/03/19 01:26:43;;;;;;;3.67;2.45;;;19.00;1.00;;;;;;5041493;23;20114;-35
2023/03/19 01:29:24;;;;;;;3.90;2.45;;;19.00;1.00;;;;;;5030039;28;20133;-35
2023/03/19 01:31:52;;;;;;;6.13;2.78;;;18.90;1.00;;;;;;5031996;28;20092;-35
2023/03/19 01:34:39;;;;;;;4.10;2.45;;;18.90;1.00;;;;;;5032560;28;20073;-35
2023/03/19 01:37:08;;;;;;;3.53;2.25;;;18.90;1.00;;;;;;5012252;28;20042;-36
2023/03/19 01:39:36;;;;;;;6.15;2.30;;;18.90;1.00;;;;;;5013274;28;20061;-36
2023/03/19 01:42:07;;;;;;;4.07;2.95;;;18.90;1.00;;;;;;5012059;28;20042;-36
2023/03/19 01:44:54;;;;;;;3.45;2.38;;;18.80;1.00;;;;;;4993246;28;20050;-35
2023/03/19 01:47:33;;;;;;;3.08;2.30;;;18.80;1.00;;;;;;5008954;28;20043;-35
2023/03/19 01:50:36;;;;;;;4.28;3.42;;;18.80;1.00;;;;;;4992525;28;20058;-36
2023/03/19 01:53:18;;;;;;;6.20;2.92;;;18.80;1.00;;;;;;5008080;28;20520;-35
2023/03/19 01:56:09;;;;;;;4.45;2.72;;;18.70;1.00;;;;;;4992310;28;20050;-35
2023/03/19 01:58:47;;;;;;;4.72;3.20;;;18.70;1.00;;;;;;5008748;28;20050;-35
2023/03/19 02:01:50;;;;;;;3.70;2.78;;;18.70;1.00;;;;;;4988637;28;20042;-35
2023/03/19 02:04:18;;;;;;;3.83;3.28;;;18.70;1.00;;;;;;5007839;28;20045;-35
2023/03/19 02:06:45;;;;;;;3.88;2.95;;;18.60;1.00;;;;;;5008453;28;20518;-35
2023/03/19 02:09:13;;;;;;;5.45;3.15;;;18.70;1.00;;;;;;4993399;28;20057;-36
2023/03/19 02:11:40;;;;;;;3.78;2.85;;;18.60;1.00;;;;;;4991836;28;20046;-36
2023/03/19 02:14:08;;;;;;;5.40;3.30;;;18.60;1.00;;;;;;4992759;28;20070;-36
2023/03/19 02:16:35;;;;;;;6.80;3.75;;;18.60;1.00;;;;;;5008250;28;20104;-36
2023/03/19 02:19:05;;;;;;;5.03;3.03;;;18.60;1.00;;;;;;4991828;28;20065;-36
2023/03/19 02:21:32;;;;;;;4.35;2.92;;;18.60;1.00;;;;;;4991943;28;20441;-36
2023/03/19 02:24:27;;;;;;;6.78;3.28;;;18.50;1.00;;;;;;5007354;28;20510;-36
2023/03/19 02:27:14;;;;;;;5.78;3.50;;;18.50;1.00;;;;;;4992927;28;20065;-36
2023/03/19 02:29:45;;;;;;;8.45;3.90;;;18.50;1.00;;;;;;5008167;28;20050;-34
2023/03/19 02:32:15;;;;;;;5.47;3.42;;;18.50;1.00;;;;;;5007664;28;20053;-35
2023/03/19 02:34:43;;;;;;;4.63;3.05;;;18.50;1.00;;;;;;4992687;28;20046;-35
2023/03/19 02:37:23;;;;;;;5.22;3.35;;;18.50;1.00;;;;;;4993138;28;20441;-35
2023/03/19 02:40:10;;;;;;;4.82;3.75;;;18.40;1.00;;;;;;5007994;28;20137;-36
2023/03/19 02:42:37;;;;;;;5.47;3.25;;;18.40;1.00;;;;;;5011912;28;20053;-36
2023/03/19 02:45:04;;;;;;;4.35;3.13;;;18.40;1.00;;;;;;5011189;28;20053;-36
2023/03/19 02:47:31;;;;;;;4.45;2.83;;;18.40;1.00;;;;;;5012389;28;20038;-36
2023/03/19 02:49:58;;;;;;;4.82;2.60;;;18.40;1.00;;;;;;5011068;28;20050;-36
2023/03/19 02:52:24;;;;;;;3.45;2.78;;;18.30;1.00;;;;;;5010689;28;20140;-36
2023/03/19 02:54:51;;;;;;;4.47;2.90;;;18.40;1.00;;;;;;5011908;28;20096;-36
2023/03/19 02:57:18;;;;;;;5.85;3.97;;;18.30;1.00;;;;;;5011086;28;20070;-36
2023/03/19 02:59:45;;;;;;;5.55;3.45;;;18.30;1.00;;;;;;5012357;28;20053;-35
2023/03/19 03:02:12;;;;;;;4.50;3.63;;;18.30;1.00;;;;;;5010799;28;20053;-35
2023/03/19 03:04:39;;;;;;;4.60;3.13;;;18.30;1.00;;;;;;5011752;28;20042;-36
2023/03/19 03:07:06;;;;;;;4.07;3.03;;;18.30;1.00;;;;;;5010706;28;20452;-36
2023/03/19 03:09:33;;;;;;;6.75;3.95;;;18.20;1.00;;;;;;5010983;28;20073;-37
2023/03/19 03:12:00;;;;;;;5.75;3.42;;;18.20;1.00;;;;;;5010939;28;20046;-36
2023/03/19 03:14:27;;;;;;;4.55;3.60;;;18.20;1.00;;;;;;5010350;28;20108;-35
2023/03/19 03:16:56;;;;;;;5.20;3.65;;;18.20;1.00;;;;;;5010744;28;20100;-35
2023/03/19 03:19:23;;;;;;;5.13;3.63;;;18.20;1.00;;;;;;5010771;28;20054;-35
2023/03/19 03:21:50;;;;;;;6.82;4.25;;;18.20;1.00;;;;;;5010725;28;20050;-36
2023/03/19 03:24:17;;;;;;;5.07;3.60;;;18.20;1.00;;;;;;5013504;28;20038;-35
2023/03/19 03:26:44;;;;;;;6.63;3.90;;;18.20;1.00;;;;;;5014654;28;20069;-36
2023/03/19 03:29:11;;;;;;;6.13;4.03;;;18.10;1.00;;;;;;5014770;28;20042;-36
2023/03/19 03:31:40;;;;;;;6.00;3.67;;;18.10;1.00;;;;;;5014574;28;20057;-36
2023/03/19 03:34:07;;;;;;;6.35;4.15;;;18.10;1.00;;;;;;5030266;28;20046;-36
2023/03/19 03:36:33;;;;;;;6.82;3.90;;;18.10;1.00;;;;;;5015797;28;20084;-36
2023/03/19 03:39:00;;;;;;;4.28;3.33;;;18.10;1.00;;;;;;5015850;28;20044;-36
2023/03/19 03:41:27;;;;;;;5.88;3.63;;;18.10;1.00;;;;;;5014516;28;20099;-36
2023/03/19 03:43:55;;;;;;;6.30;4.00;;;18.00;1.00;;;;;;5013710;28;20046;-36
2023/03/19 03:46:23;;;;;;;7.20;3.50;;;18.00;1.00;;;;;;5014380;28;20056;-36
2023/03/19 03:48:50;;;;;;;4.35;3.42;;;18.00;1.00;;;;;;5014381;28;20100;-36
2023/03/19 03:51:18;;;;;;;5.05;3.53;;;18.00;1.00;;;;;;5014347;28;20049;-36
2023/03/19 03:53:45;;;;;;;7.43;4.25;;;18.00;1.00;;;;;;5013586;28;20108;-36
2023/03/19 03:56:12;;;;;;;6.45;4.18;;;18.00;1.00;;;;;;5014162;28;20050;-36
2023/03/19 03:58:40;;;;;;;6.15;4.25;;;18.00;1.00;;;;;;5015517;28;20042;-36
2023/03/19 04:01:08;;;;;;;5.35;3.63;;;18.00;1.00;;;;;;5013918;28;20046;-36
2023/03/19 04:03:35;;;;;;;5.97;3.70;;;17.90;1.00;;;;;;5013294;28;20140;-36
2023/03/19 04:06:01;;;;;;;5.05;4.20;;;17.90;1.00;;;;;;5014033;28;20038;-36
2023/03/19 04:08:29;;;;;;;5.93;4.13;;;17.90;1.00;;;;;;5013963;28;20502;-36
2023/03/19 04:10:55;;;;;;;6.88;4.05;;;17.90;1.00;;;;;;5013982;28;20128;-36
2023/03/19 04:13:23;;;;;;;6.13;3.83;;;17.90;1.00;;;;;;5013160;28;20053;-36
2023/03/19 04:15:52;;;;;;;8.50;4.03;;;17.90;1.00;;;;;;5013685;28;20069;-35
2023/03/19 04:18:20;;;;;;;5.82;4.38;;;17.90;1.00;;;;;;5013798;28;20146;-35
2023/03/19 04:20:47;;;;;;;6.75;3.90;;;17.80;1.00;;;;;;5030261;28;20084;-35
2023/03/19 04:23:14;;;;;;;5.53;3.53;;;17.80;1.00;;;;;;5012947;28;20049;-36
2023/03/19 04:25:41;;;;;;;4.90;3.83;;;17.80;1.00;;;;;;5013622;28;20073;-35
2023/03/19 04:28:08;;;;;;;5.25;3.85;;;17.80;1.00;;;;;;5014857;28;20038;-35
2023/03/19 04:30:34;;;;;;;6.32;4.07;;;17.80;1.00;;;;;;5013521;28;20133;-36
2023/03/19 04:33:02;;;;;;;7.00;4.07;;;17.80;1.00;;;;;;5014142;28;20061;-36
2023/03/19 04:35:30;;;;;;;5.90;3.92;;;17.80;1.00;;;;;;5013136;28;20434;-36
2023/03/19 04:37:57;;;;;;;11.70;4.18;;;17.80;1.00;;;;;;5013507;28;20038;-36
2023/03/19 04:40:24;;;;;;;4.65;3.42;;;17.70;1.00;;;;;;5013420;28;20145;-36
2023/03/19 04:42:51;;;;;;;6.05;4.30;;;17.70;1.00;;;;;;5012433;28;20045;-36
2023/03/19 04:45:27;;;;;;;7.15;3.90;;;17.70;1.00;;;;;;5013302;28;20046;-36
2023/03/19 04:47:55;;;;;;;6.38;3.88;;;17.70;1.00;;;;;;5013265;28;20080;-36
2023/03/19 04:50:22;;;;;;;5.03;3.95;;;17.70;1.00;;;;;;5014520;28;20050;-36
2023/03/19 04:52:49;;;;;;;6.15;3.78;;;17.70;1.00;;;;;;5012546;28;20038;-36
2023/03/19 04:55:17;;;;;;;4.68;3.35;;;17.70;1.00;;;;;;5012988;28;20108;-36
2023/03/19 04:58:04;;;;;;;5.45;4.13;;;17.70;1.00;;;;;;5013876;28;20064;-36
2023/03/19 05:00:33;;;;;;;5.03;3.75;;;17.60;1.00;;;;;;5012721;28;20088;-36
2023/03/19 05:03:01;;;;;;;5.18;3.60;;;17.60;1.00;;;;;;5012235;28;20049;-36
2023/03/19 05:05:30;;;;;;;6.18;4.18;;;17.60;1.00;;;;;;5012855;28;20142;-36
2023/03/19 05:07:57;;;;;;;6.50;4.22;;;17.60;1.00;;;;;;5012745;28;20046;-36
2023/03/19 05:10:25;;;;;;;4.38;3.45;;;17.60;1.00;;;;;;5012915;28;20046;-36
2023/03/19 05:12:52;;;;;;;6.03;3.85;;;17.60;1.00;;;;;;5011981;28;20053;-36
2023/03/19 05:15:19;;;;;;;5.55;4.43;;;17.60;1.00;;;;;;5014031;28;20042;-36
2023/03/19 05:17:59;;;;;;;6.13;3.65;;;17.50;1.00;;;;;;5012774;28;20049;-35
2023/03/19 05:20:37;;;;;;;7.20;3.58;;;17.50;1.00;;;;;;5029177;28;20069;-35
2023/03/19 05:23:09;;;;;;;4.82;3.70;;;17.50;1.00;;;;;;5011797;28;20501;-35
2023/03/19 05:25:45;;;;;;;4.63;3.63;;;17.50;1.00;;;;;;5012427;28;20057;-35
2023/03/19 05:28:16;;;;;;;5.40;3.58;;;17.50;1.00;;;;;;5028993;28;20050;-35
2023/03/19 05:30:43;;;;;;;4.78;3.20;;;17.50;1.00;;;;;;5013542;28;20034;-35
2023/03/19 05:33:17;;;;;;;6.13;4.25;;;17.50;1.00;;;;;;5011672;28;20038;-36
2023/03/19 05:35:44;;;;;;;5.68;3.35;;;17.50;1.00;;;;;;5012279;28;20463;-36
2023/03/19 05:38:26;;;;;;;5.22;3.70;;;17.50;1.00;;;;;;5028716;28;20084;-36
2023/03/19 05:41:03;;;;;;;;;;;17.40;1.00;;;;;;5012905;28;20048;-36
2023/03/19 05:43:42;;;;;;;4.40;3.35;;;17.40;1.00;;;;;;5027918;28;19928;-35
2023/03/19 05:46:18;;;;;;;4.25;2.90;;;17.40;1.00;;;;;;5011508;28;20116;-35
2023/03/19 05:48:45;;;;;;;4.32;3.28;;;17.40;1.00;;;;;;5012088;28;20353;-35
2023/03/19 05:51:11;;;;;;;4.07;2.90;;;17.40;1.00;;;;;;5013363;28;20442;-35
2023/03/19 05:53:42;;;;;;;5.55;3.20;;;17.40;1.00;;;;;;5011251;28;20417;-36
2023/03/19 05:56:28;;;;;;;3.78;3.28;;;17.40;1.00;;;;;;5013463;28;20053;-36
2023/03/19 05:59:13;;;;;;;4.88;3.15;;;17.40;1.00;;;;;;5013410;28;20057;-35
2023/03/19 06:01:49;;;;;;;6.05;3.03;;;17.40;1.00;;;;;;5011867;28;20065;-35
2023/03/19 06:04:16;;;;;;;4.57;2.85;;;17.40;1.00;;;;;;5003141;28;20413;-35
2023/03/19 06:06:43;;;;;;;3.58;2.65;;;17.30;1.00;;;;;;4997175;28;20060;-35
2023/03/19 06:09:10;;;;;;;4.75;3.40;;;17.30;1.00;;;;;;4978833;28;20100;-35
2023/03/19 06:11:41;;;;;;;3.97;2.88;;;17.30;1.00;;;;;;5007353;28;20096;-35
2023/03/19 06:14:46;;;;;;;6.80;2.63;;;17.30;1.00;;;;;;4970995;28;20223;-36
2023/03/19 06:17:32;;;;;;;4.05;3.03;;;17.30;1.00;;;;;;5010839;28;20559;-35
2023/03/19 06:20:03;;;;;;;3.83;3.28;;;17.30;1.00;;;;;;5011539;28;20643;-35
2023/03/19 06:22:36;;;;;;;6.18;3.17;;;17.30;1.00;;;;;;5012969;28;20048;-36
2023/03/19 06:28:19;;;;;;;4.20;2.97;;;17.30;1.00;;;;;;5011623;28;20046;-36
2023/03/19 06:30:54;;;;;;;4.50;2.60;;;17.20;1.00;;;;;;5011301;28;20048;-35
2023/03/19 06:33:40;;;;;;;7.32;3.20;;;17.20;1.00;;;;;;5012254;28;20045;-36
2023/03/19 06:36:09;;;;;;;4.55;3.00;;;17.20;1.00;;;;;;5027788;28;20042;-35
2023/03/19 06:38:39;;;;;;;15.68;4.07;;;17.20;1.00;;;;;;5010218;28;20042;-35
2023/03/19 06:41:06;;;;;;;7.30;3.28;;;17.10;1.00;;;;;;5006586;28;20034;-34
2023/03/19 06:43:35;;;;;;;5.80;3.25;;;17.10;1.00;;;;;;5005934;28;20485;-36
2023/03/19 06:46:03;;;;;;;5.05;3.10;;;17.10;1.00;;;;;;5012394;28;20048;-36
2023/03/19 06:48:30;;;;;;;3.55;2.22;;;17.10;1.00;;;;;;5012518;28;20116;-35
2023/03/19 06:50:57;;;;;;;5.65;2.80;;;17.10;1.00;;;;;;5011232;28;20042;-36
2023/03/19 06:53:24;;;;;;;5.30;3.47;;;17.10;1.00;;;;;;5009203;28;20046;-34
2023/03/19 06:55:51;;;;;;;4.07;3.20;;;17.10;1.00;;;;;;5009845;28;20112;-35
2023/03/19 06:58:17;;;;;;;3.88;2.40;;;17.10;1.00;;;;;;5003523;28;20433;-35
2023/03/19 07:00:44;;;;;;;4.88;2.60;;;17.10;1.00;;;;;;5011093;28;20038;-35
2023/03/19 07:03:11;;;;;;;3.92;2.33;;;17.10;1.00;;;;;;5006454;28;20038;-35
2023/03/19 07:05:38;;;;;;;5.07;2.53;;;17.10;1.00;;;;;;5003877;28;20042;-35
2023/03/19 07:08:10;;;;;;;4.32;2.60;;;17.10;1.00;;;;;;5009315;28;20108;-36
2023/03/19 07:10:38;;;;;;;7.20;3.20;;;17.10;1.00;;;;;;5008125;28;20056;-35
2023/03/19 07:13:05;;;;;;;6.00;2.67;;;17.10;1.00;;;;;;5008022;28;20041;-35
2023/03/19 07:15:32;;;;;;;4.95;2.80;;;17.10;1.00;;;;;;5007385;28;20577;-35
2023/03/19 07:17:59;;;;;;;4.50;2.75;;;17.10;1.00;;;;;;5010179;28;20049;-36
2023/03/19 07:20:27;;;;;;;4.07;2.65;;;17.10;1.00;;;;;;5010474;28;20056;-35
2023/03/19 07:22:54;;;;;;;5.63;2.78;;;17.10;1.00;;;;;;5004829;28;20046;-35
2023/03/19 07:25:21;;;;;;;5.57;2.53;;;17.10;1.00;;;;;;5010756;28;20467;-36
2023/03/19 07:27:48;;;;;;;5.78;2.97;;;17.10;1.00;;;;;;5008716;28;20104;-41
2023/03/19 07:30:15;;;;;;;4.38;2.63;;;17.10;1.00;;;;;;5000882;28;20045;-43
2023/03/19 07:32:42;;;;;;;4.07;2.50;;;17.00;1.00;;;;;;5001191;28;20046;-43
2023/03/19 07:35:10;;;;;;;3.88;2.35;;;17.10;1.00;;;;;;5007552;28;20069;-44
2023/03/19 07:37:37;;;;;;;4.30;2.40;;;17.00;1.00;;;;;;5006554;28;20042;-42
2023/03/19 07:40:04;;;;;;;4.80;2.20;;;17.00;1.00;;;;;;5011062;28;20037;-43
2023/03/19 07:42:31;;;;;;;4.45;2.28;;;17.10;1.00;;;;;;5006665;28;20073;-43
2023/03/19 07:44:58;;;;;;;4.35;2.38;;;17.10;1.00;;;;;;5007266;28;20034;-42
2023/03/19 07:47:25;;;;;;;7.10;2.30;;;17.00;1.00;;;;;;5010293;28;20084;-42
2023/03/19 07:49:56;;;;;;;6.45;3.30;;;17.00;1.00;;;;;;5000193;28;20466;-42
2023/03/19 07:52:24;;;;;;;4.18;2.45;;;17.00;1.00;;;;;;5000692;28;20038;-43
2023/03/19 07:54:51;;;;;;;4.50;2.60;;;17.10;1.00;;;;;;5004979;28;20046;-41
2023/03/19 07:57:18;;;;;;;3.80;2.20;;;17.00;1.00;;;;;;5005309;28;20065;-43
2023/03/19 07:59:45;;;;;;;4.18;2.10;;;17.00;1.00;;;;;;5005108;28;20498;-42
2023/03/19 08:02:13;;;;;;;3.17;1.98;;;17.00;1.00;;;;;;5008892;28;20046;-43
2023/03/19 08:04:40;;;;;;;4.45;1.98;;;17.00;1.00;;;;;;5022526;28;20409;-42
2023/03/19 08:07:09;;;;;;;4.28;2.33;;;17.00;1.00;;;;;;5006333;28;20133;-40
2023/03/19 08:09:36;;;;;;;3.08;1.83;;;17.00;1.00;;;;;;5024245;28;20044;-41
2023/03/19 08:12:03;;;;;;;4.53;2.15;;;17.00;1.00;;;;;;5011976;28;20076;-43
2023/03/19 08:14:30;;;;;;;3.05;1.80;;;17.00;1.00;;;;;;5005139;28;20053;-40
2023/03/19 08:16:57;;;;;;;2.92;2.13;;;17.00;1.00;;;;;;5012130;28;20072;-43
2023/03/19 08:19:24;;;;;;;10.30;3.35;;;17.00;1.00;;;;;;5014639;28;20415;-43
2023/03/19 08:21:50;;;;;;;7.05;3.42;;;17.00;1.00;;;;;;5014889;28;20045;-42
2023/03/19 08:24:18;;;;;;;8.68;2.72;;;17.00;1.00;;;;;;5014112;28;20061;-42
2023/03/19 08:26:45;;;;;;;11.27;3.05;;;16.90;1.00;;;;;;5013401;28;20494;-40
2023/03/19 08:29:12;;;;;;;4.25;2.70;;;16.90;1.00;;;;;;5014886;28;20116;-41
2023/03/19 08:31:39;;;;;;;8.40;2.97;;;16.90;1.00;;;;;;5012649;28;20404;-43
2023/03/19 08:34:09;;;;;;;14.50;4.15;;;16.90;1.00;;;;;;5012636;28;20053;-43
2023/03/19 08:36:36;;;;;;;7.00;2.53;;;16.90;1.00;;;;;;5014551;28;20045;-44
2023/03/19 08:39:03;;;;;;;8.32;3.20;;;16.90;1.00;;;;;;5014732;28;20455;-44
2023/03/19 08:41:30;;;;;;;5.18;2.63;;;16.90;1.00;;;;;;5014584;28;20045;-44
2023/03/19 08:43:57;;;;;;;5.32;2.38;;;16.90;1.00;;;;;;5013862;28;20410;-44
2023/03/19 08:46:26;;;;;;;9.15;2.45;;;16.90;1.00;;;;;;5014349;28;20038;-42
2023/03/19 08:48:53;;;;;;;4.78;2.78;;;16.90;1.00;;;;;;5014531;28;20092;-44
2023/03/19 08:51:21;;;;;;;6.72;3.65;;;16.90;1.00;;;;;;5014330;28;20038;-43
2023/03/19 08:53:51;;;;;;;4.22;2.33;;;16.90;1.00;;;;;;5013727;28;20056;-42
2023/03/19 08:56:18;;;;;;;5.15;2.60;;;16.90;1.00;;;;;;5013314;28;20064;-41
2023/03/19 08:58:44;;;;;;;6.78;3.55;;;16.80;1.00;;;;;;5013355;28;20041;-41
2023/03/19 09:01:12;;;;;;;6.07;3.22;;;16.80;1.00;;;;;;5014049;28;20046;-43
2023/03/19 09:03:42;;;;;;;5.75;2.65;;;16.90;1.00;;;;;;5013477;28;20046;-42
2023/03/19 09:06:10;;;;;;;4.57;2.53;;;16.90;1.00;;;;;;5013825;28;20045;-41
2023/03/19 09:08:38;;;;;;;4.75;2.20;;;16.90;1.00;;;;;;5013860;28;20044;-43
2023/03/19 09:11:10;;;;;;;6.75;2.83;;;16.90;1.00;;;;;;5014011;28;20052;-42
2023/03/19 09:13:40;;;;;;;5.72;2.45;;;16.90;1.00;;;;;;5010534;28;20045;-42
2023/03/19 09:16:08;;;;;;;8.00;3.42;;;16.90;1.00;;;;;;5013636;28;20092;-42
2023/03/19 09:19:03;;;;;;;18.95;5.13;;;16.90;1.00;;;;;;5013863;28;20050;-42
2023/03/19 09:21:33;;;;;;;16.52;7.32;;;16.90;1.00;;;;;;5012626;28;20045;-43
2023/03/19 09:24:07;;;;;;;14.80;6.57;;;16.80;1.00;;;;;;5012880;28;20045;-40
2023/03/19 09:26:39;;;;;;;19.17;7.63;;;16.80;1.00;;;;;;5012759;28;20063;-42
2023/03/19 09:29:06;;;;;;;20.45;8.85;;;16.80;1.00;;;;;;5013803;28;20497;-42
2023/03/19 09:31:33;;;;;;;15.55;6.85;;;16.80;1.00;;;;;;5012162;28;20576;-40
2023/03/19 09:34:00;;;;;;;14.38;6.78;;;16.80;1.00;;;;;;5012366;28;20084;-41
2023/03/19 09:36:27;;;;;;;14.25;6.40;;;16.80;1.00;;;;;;5012791;28;20046;-43
2023/03/19 09:38:54;;;;;;;13.15;5.43;;;16.80;1.00;;;;;;5010474;28;20044;-42
2023/03/19 09:41:27;;;;;;;11.93;5.80;;;16.80;1.00;;;;;;5013039;28;20096;-43
2023/03/19 09:44:00;;;;;;;11.30;5.32;;;16.80;1.00;;;;;;5012675;28;20045;-41
2023/03/19 09:46:37;;;;;;;13.88;5.68;;;16.80;1.00;;;;;;5012959;28;20046;-43
2023/03/19 09:49:15;;;;;;;14.00;6.00;;;16.80;1.00;;;;;;5012659;28;20050;-41
2023/03/19 09:51:48;;;;;;;13.23;5.82;;;16.80;1.00;;;;;;5013008;28;20044;-44
2023/03/19 09:54:29;;;;;;;16.45;5.63;;;16.80;1.00;;;;;;5012472;28;20323;-43
2023/03/19 09:56:56;;;;;;;12.95;5.45;;;16.80;1.00;;;;;;5012967;28;20475;-43
2023/03/19 09:59:25;;;;;;;13.80;5.88;;;16.80;1.00;;;;;;5011405;28;20165;-43
2023/03/19 10:01:59;;;;;;;13.50;5.25;;;16.80;1.00;;;;;;5013020;28;20033;-43
2023/03/19 10:04:46;;;;;;;12.77;5.07;;;16.80;1.00;;;;;;5011098;28;20030;-44
2023/03/19 10:07:35;;;;;;;12.73;5.53;;;16.80;1.00;;;;;;5012983;28;20041;-43
2023/03/19 10:10:42;;;;;;;15.82;6.60;;;16.80;1.00;;;;;;5012935;28;20042;-42
2023/03/19 10:13:48;;;;;;;13.05;5.82;;;16.70;1.00;;;;;;5012136;28;20072;-42
2023/03/19 10:16:21;;;;;;;13.60;6.72;;;16.70;1.00;;;;;;4993192;28;20090;-43
2023/03/19 10:18:50;;;;;;;13.93;5.45;;;16.70;1.00;;;;;;4993341;28;20552;-42
2023/03/19 10:21:27;;;;;;;13.18;5.82;;;16.70;1.00;;;;;;4993094;28;20047;-43
2023/03/19 10:24:00;;;;;;;14.10;6.20;;;16.70;1.00;;;;;;4992545;28;20494;-42
2023/03/19 10:26:30;;;;;;;12.93;6.03;;;16.70;1.00;;;;;;4992831;28;20035;-44
2023/03/19 10:29:21;;;;;;;10.70;4.88;;;16.70;1.00;;;;;;4993174;28;20069;-44
2023/03/19 10:31:47;;;;;;;12.68;5.50;;;16.70;1.00;;;;;;4992586;28;20077;-45
2023/03/19 10:34:27;;;;;;;14.80;6.03;;;16.70;1.00;;;;;;4993356;28;20043;-44
2023/03/19 10:37:19;;;;;;;13.63;6.45;;;16.70;1.00;;;;;;5025339;28;20044;-43
2023/03/19 10:39:48;;;;;;;14.98;6.45;;;16.70;1.00;;;;;;5009702;28;20077;-44
2023/03/19 10:42:43;;;;;;;14.10;6.35;;;16.70;1.00;;;;;;5011978;28;20064;-43
2023/03/19 10:45:30;;;;;;;12.80;5.57;;;16.70;1.00;;;;;;5007752;28;20690;-40
2023/03/19 10:47:58;;;;;;;12.35;5.90;;;16.70;1.00;;;;;;5011256;28;20493;-43
2023/03/19 10:50:47;;;;;;;16.02;6.53;;;16.70;1.00;;;;;;5012340;28;20091;-43
2023/03/19 10:53:13;;;;;;;12.80;6.18;;;16.70;1.00;;;;;;5011718;28;20077;-43
2023/03/19 10:55:52;;;;;;;15.50;5.80;;;16.70;1.00;;;;;;5012063;28;20085;-41
2023/03/19 10:58:24;;;;;;;18.38;6.55;;;16.70;1.00;;;;;;5007796;28;20042;-43
2023/03/19 11:01:03;;;;;;;14.15;5.72;;;16.70;1.00;;;;;;5012360;28;20111;-44
2023/03/19 11:03:57;;;;;;;14.63;6.28;;;16.70;1.00;;;;;;5010563;28;20124;-43
2023/03/19 11:06:34;;;;;;;16.92;6.68;;;16.70;1.00;;;;;;5014093;28;20058;-43
2023/03/19 11:09:06;;;;;;;14.95;6.90;;;16.70;1.00;;;;;;5012132;28;20038;-42
2023/03/19 11:11:44;;;;;;;17.50;5.72;;;16.70;1.00;;;;;;5017574;28;20042;-41
2023/03/19 11:14:17;;;;;;;15.50;6.90;;;16.70;1.00;;;;;;5024450;28;20042;-44
2023/03/19 11:16:53;;;;;;;22.95;8.00;;;16.60;1.00;;;;;;5004683;28;20080;-42
2023/03/19 11:19:26;;;;;;;19.40;6.78;;;16.60;1.00;;;;;;5008055;28;20054;-41
2023/03/19 11:22:16;;;;;;;16.95;7.03;;;16.60;1.00;;;;;;4992397;28;20125;-42
2023/03/19 11:25:01;;;;;;;20.80;6.35;;;16.60;1.00;;;;;;4991799;28;20121;-43
2023/03/19 11:27:34;;;;;;;14.35;6.72;;;16.60;1.00;;;;;;5001179;28;20081;-44
2023/03/19 11:30:06;;;;;;;16.23;7.22;;;16.60;1.00;;;;;;5006701;28;20038;-43
2023/03/19 11:32:51;;;;;;;15.90;7.00;;;16.60;1.00;;;;;;5011177;28;20549;-43
2023/03/19 11:35:25;;;;;;;16.35;6.30;;;16.60;1.00;;;;;;5008275;28;20125;-42
2023/03/19 11:38:00;;;;;;;16.67;6.28;;;16.60;1.00;;;;;;5008510;28;20046;-44
2023/03/19 11:40:36;;;;;;;19.48;6.68;;;16.60;1.00;;;;;;5006571;28;20112;-44
2023/03/19 11:43:24;;;;;;;20.77;6.30;;;16.60;1.00;;;;;;5004635;28;20516;-43
2023/03/19 11:46:03;;;;;;;18.05;6.07;;;16.60;1.00;;;;;;5008859;28;20092;-43
2023/03/19 11:48:39;;;;;;;16.02;8.05;;;16.60;1.00;;;;;;5009194;28;20042;-43
2023/03/19 11:51:26;;;;;;;14.40;6.07;;;16.60;1.00;;;;;;5014151;28;20042;-43
2023/03/19 11:54:15;;;;;;;17.23;6.18;;;16.70;1.00;;;;;;5028481;28;20045;-43
2023/03/19 11:56:47;;;;;;;22.05;7.90;;;16.70;1.00;;;;;;5004775;28;20057;-43
2023/03/19 11:59:42;;;;;;;17.30;6.32;;;16.60;1.00;;;;;;5011618;28;20094;-42
2023/03/19 12:02:31;;;;;;;22.40;7.22;;;16.60;1.00;;;;;;5010670;28;20042;-42
2023/03/19 12:05:17;;;;;;;18.30;6.43;;;16.60;1.00;;;;;;5008815;28;20049;-43
2023/03/19 12:08:06;;;;;;;20.95;6.57;;;16.60;1.00;;;;;;5015399;28;20409;-44
2023/03/19 12:10:41;;;;;;;17.58;7.63;;;16.60;1.00;;;;;;5015266;28;20038;-44
2023/03/19 12:13:14;;;;;;;21.60;6.43;;;16.60;1.00;;;;;;5012240;28;20057;-44
2023/03/19 12:16:06;;;;;;;22.88;8.30;;;16.60;1.00;;;;;;5014944;28;20417;-44
2023/03/19 12:18:51;;;;;;;20.58;7.68;;;16.60;1.00;;;;;;5014705;28;20452;-45
2023/03/19 12:21:52;;;;;;;22.38;7.72;;;16.60;1.00;;;;;;5014625;28;20046;-44
2023/03/19 12:24:54;;;;;;;22.13;8.98;;;16.60;1.00;;;;;;5011066;28;20405;-44
2023/03/19 12:27:26;;;;;;;24.52;8.40;;;16.60;1.00;;;;;;5013379;28;20517;-43
2023/03/19 12:30:16;;;;;;;25.30;8.25;;;16.60;1.00;;;;;;5014659;28;20045;-44
2023/03/19 12:32:52;;;;;;;17.88;6.35;;;16.60;1.00;;;;;;5006128;28;20088;-43
2023/03/19 12:35:28;;;;;;;25.00;7.80;;;16.60;1.00;;;;;;5014148;28;20092;-43
2023/03/19 12:38:07;;;;;;;14.52;6.32;;;16.60;1.00;;;;;;5008469;28;20046;-43
2023/03/19 12:40:56;;;;;;;21.95;7.93;;;16.70;1.00;;;;;;5012317;28;20038;-41
2023/03/19 12:43:44;;;;;;;23.15;8.38;;;16.70;1.00;;;;;;5006255;28;20434;-42
2023/03/19 12:46:17;;;;;;;24.15;8.25;;;16.60;1.00;;;;;;4997798;28;20478;-42
2023/03/19 12:49:06;;;;;;;20.00;7.85;;;16.60;1.00;;;;;;4995125;28;20089;-43
2023/03/19 12:51:40;;;;;;;19.58;7.40;;;16.60;1.00;;;;;;4994869;28;20053;-43
2023/03/19 12:54:26;;;;;;;23.73;8.45;;;16.70;1.00;;;;;;4994118;28;20045;-41
2023/03/19 12:57:09;;;;;;;23.50;7.45;;;16.60;1.00;;;;;;4993315;28;20050;-41
2023/03/19 12:59:43;;;;;;;21.08;7.80;;;16.70;1.00;;;;;;4994794;28;20169;-43
2023/03/19 13:02:32;;;;;;;25.80;8.85;;;16.60;1.00;;;;;;5000240;28;20045;-44
2023/03/19 13:05:33;;;;;;;23.23;8.52;;;16.70;1.00;;;;;;5006274;28;20050;-43
2023/03/19 13:08:13;;;;;;;26.83;8.98;;;16.70;1.00;;;;;;5013584;28;20034;-42
2023/03/19 13:10:40;;;;;;;28.75;7.88;;;16.60;1.00;;;;;;5013575;28;20069;-43
2023/03/19 13:13:27;;;;;;;24.38;9.15;;;16.60;1.00;;;;;;5013176;28;20525;-42
2023/03/19 13:16:03;;;;;;;29.23;8.48;;;16.70;1.00;;;;;;5013933;28;20046;-42
2023/03/19 13:18:37;;;;;;;25.17;8.48;;;16.60;1.00;;;;;;5014064;28;20056;-43
2023/03/19 13:21:24;;;;;;;18.58;7.60;;;16.70;1.00;;;;;;5013888;28;20096;-44
2023/03/19 13:24:16;;;;;;;20.42;7.13;;;16.70;1.00;;;;;;5011845;28;20100;-44